createdAt,value
2019-06-26T00:00:18.678Z,9.33
2019-06-26T00:02:47.229Z,11.83
2019-06-26T00:05:15.918Z,7.70
2019-06-26T00:07:44.457Z,12.17
2019-06-26T00:10:14.549Z,7.47
2019-06-26T00:12:44.646Z,13.03
2019-06-26T00:15:16.274Z,7.37
2019-06-26T00:17:47.790Z,8.43
2019-06-26T00:20:18.261Z,11.23
2019-06-26T00:22:46.748Z,12.07
2019-06-26T00:25:16.817Z,14.47
2019-06-26T00:27:48.318Z,10.50
2019-06-26T00:30:18.563Z,8.50
2019-06-26T00:32:47.130Z,6.77
2019-06-26T00:35:17.200Z,13.53
2019-06-26T00:37:45.686Z,9.20
2019-06-26T00:40:17.573Z,9.77
2019-06-26T00:42:49.021Z,7.00
2019-06-26T00:45:17.601Z,7.50
2019-06-26T00:47:46.304Z,7.40
2019-06-26T00:50:20.641Z,12.63
2019-06-26T00:52:49.207Z,9.60
2019-06-26T00:55:19.280Z,7.00
2019-06-26T00:57:47.768Z,14.40
2019-06-26T01:00:20.518Z,11.00
2019-06-26T01:02:53.631Z,10.13
2019-06-26T01:05:22.105Z,8.90
2019-06-26T01:07:53.369Z,8.67
2019-06-26T01:10:23.442Z,8.97
2019-06-26T01:12:51.939Z,9.90
2019-06-26T01:15:22.022Z,8.83
2019-06-26T01:17:52.081Z,9.30
2019-06-26T01:20:20.666Z,9.30
2019-06-26T01:22:49.247Z,9.53
2019-06-26T01:25:19.966Z,9.83
2019-06-26T01:27:50.779Z,8.40
2019-06-26T01:30:22.341Z,8.90
2019-06-26T01:32:50.912Z,8.90
2019-06-26T01:35:20.983Z,10.60
2019-06-26T01:37:49.544Z,8.80
2019-06-26T01:40:21.441Z,8.77
2019-06-26T01:42:50.050Z,9.17
2019-06-26T01:45:20.294Z,9.10
2019-06-26T01:47:48.783Z,9.23
2019-06-26T01:50:18.989Z,13.83
2019-06-26T01:52:47.552Z,9.47
2019-06-26T01:55:16.101Z,11.20
2019-06-26T01:57:44.589Z,9.63
2019-06-26T02:00:16.890Z,8.83
2019-06-26T02:02:46.955Z,11.33
2019-06-26T02:05:16.650Z,12.90
2019-06-26T02:07:45.265Z,10.07
2019-06-26T02:10:17.224Z,11.00
2019-06-26T02:12:45.742Z,10.43
2019-06-26T02:15:16.892Z,9.87
2019-06-26T02:17:47.847Z,10.73
2019-06-26T02:20:16.338Z,9.20
2019-06-26T02:22:45.179Z,9.60
2019-06-26T02:25:15.191Z,10.30
2019-06-26T02:27:43.757Z,13.50
2019-06-26T02:30:15.156Z,11.60
2019-06-26T02:32:43.710Z,9.20
2019-06-26T02:35:13.712Z,10.87
2019-06-26T02:37:42.182Z,16.03
2019-06-26T02:40:12.302Z,11.07
2019-06-26T02:42:42.395Z,10.73
2019-06-26T02:45:14.047Z,10.23
2019-06-26T02:47:42.563Z,13.43
2019-06-26T02:50:12.580Z,9.73
2019-06-26T02:52:41.196Z,11.00
2019-06-26T02:55:11.678Z,10.40
2019-06-26T02:57:40.232Z,10.43
2019-06-26T03:00:10.256Z,10.63
2019-06-26T03:02:38.736Z,12.57
2019-06-26T03:05:08.909Z,10.53
2019-06-26T03:07:37.443Z,17.27
2019-06-26T03:10:09.024Z,13.93
2019-06-26T03:12:38.907Z,10.30
2019-06-26T03:15:10.556Z,11.63
2019-06-26T03:17:54.313Z,10.97
2019-06-26T03:20:09.821Z,10.77
2019-06-26T03:22:41.237Z,10.57
2019-06-26T03:25:11.330Z,11.00
2019-06-26T03:27:39.891Z,13.00
2019-06-26T03:30:10.094Z,11.50
2019-06-26T03:32:38.683Z,12.50
2019-06-26T03:35:11.463Z,12.47
2019-06-26T03:37:39.994Z,11.43
2019-06-26T03:40:11.615Z,12.83
2019-06-26T03:42:40.137Z,11.90
2019-06-26T03:45:24.488Z,11.90
2019-06-26T03:47:41.610Z,11.07
2019-06-26T03:50:11.909Z,11.60
2019-06-26T03:52:43.598Z,12.53
2019-06-26T03:55:14.799Z,16.73
2019-06-26T03:57:43.360Z,14.73
2019-06-26T04:00:14.114Z,15.17
2019-06-26T04:02:42.690Z,15.20
2019-06-26T04:05:16.993Z,14.30
2019-06-26T04:07:45.556Z,16.37
2019-06-26T04:10:14.189Z,14.43
2019-06-26T04:12:42.740Z,20.53
2019-06-26T04:15:14.455Z,15.33
2019-06-26T04:17:43.043Z,16.47
2019-06-26T04:20:17.300Z,13.40
2019-06-26T04:22:47.656Z,16.27
2019-06-26T04:25:19.245Z,14.47
2019-06-26T04:27:50.708Z,14.23
2019-06-26T04:30:22.336Z,21.70
2019-06-26T04:32:50.820Z,21.53
2019-06-26T04:35:19.512Z,16.93
2019-06-26T04:37:48.047Z,17.53
2019-06-26T04:40:20.377Z,21.40
2019-06-26T04:42:48.361Z,17.53
2019-06-26T04:45:17.104Z,15.67
2019-06-26T04:47:47.240Z,15.17
2019-06-26T04:50:18.887Z,16.73
2019-06-26T04:52:47.360Z,20.03
2019-06-26T04:55:17.445Z,30.70
2019-06-26T04:57:51.618Z,19.00
2019-06-26T05:00:23.201Z,22.40
2019-06-26T05:02:51.755Z,19.30
2019-06-26T05:05:38.536Z,22.80
2019-06-26T05:07:53.871Z,22.13
2019-06-26T05:10:23.770Z,23.23
2019-06-26T05:12:52.333Z,19.47
2019-06-26T05:15:22.118Z,24.40
2019-06-26T05:17:50.601Z,34.67
2019-06-26T05:20:20.788Z,22.97
2019-06-26T05:22:50.461Z,19.53
2019-06-26T05:25:19.084Z,20.83
2019-06-26T05:27:47.674Z,17.10
2019-06-26T05:30:19.646Z,19.87
2019-06-26T05:32:51.210Z,24.53
2019-06-26T05:35:21.289Z,16.43
2019-06-26T05:37:49.805Z,16.97
2019-06-26T05:40:21.434Z,23.37
2019-06-26T05:42:52.758Z,15.50
2019-06-26T05:45:25.178Z,18.73
2019-06-26T05:47:53.736Z,18.83
2019-06-26T05:50:25.699Z,15.03
2019-06-26T05:52:54.275Z,24.77
2019-06-26T05:55:22.822Z,16.40
2019-06-26T05:57:51.297Z,14.60
2019-06-26T06:00:22.871Z,19.17
2019-06-26T06:02:53.853Z,18.43
2019-06-26T06:05:23.156Z,14.13
2019-06-26T06:07:51.732Z,19.70
2019-06-26T06:10:21.796Z,27.63
2019-06-26T06:12:50.401Z,15.30
2019-06-26T06:15:22.048Z,16.87
2019-06-26T06:17:51.734Z,12.80
2019-06-26T06:20:29.003Z,14.53
2019-06-26T06:22:57.565Z,15.93
2019-06-26T06:25:26.034Z,20.33
2019-06-26T06:27:56.099Z,12.07
2019-06-26T06:30:28.100Z,12.70
2019-06-26T06:32:56.631Z,12.63
2019-06-26T06:35:25.220Z,10.77
2019-06-26T06:37:53.762Z,14.63
2019-06-26T06:40:23.865Z,12.77
2019-06-26T06:42:54.004Z,12.40
2019-06-26T06:45:24.176Z,11.63
2019-06-26T06:47:55.644Z,10.87
2019-06-26T06:50:24.209Z,17.50
2019-06-26T06:52:52.747Z,14.27
2019-06-26T06:55:21.331Z,12.90
2019-06-26T06:57:49.886Z,15.53
2019-06-26T07:00:21.556Z,9.93
2019-06-26T07:02:50.112Z,13.73
2019-06-26T07:05:20.219Z,13.30
2019-06-26T07:07:48.753Z,13.40
2019-06-26T07:10:20.354Z,9.17
2019-06-26T07:12:48.883Z,8.40
2019-06-26T07:15:19.180Z,8.17
2019-06-26T07:17:47.732Z,7.60
2019-06-26T07:20:17.830Z,9.90
2019-06-26T07:22:46.402Z,9.60
2019-06-26T07:25:17.170Z,8.67
2019-06-26T07:27:45.706Z,7.97
2019-06-26T07:30:17.275Z,11.90
2019-06-26T07:32:48.331Z,7.97
2019-06-26T07:35:16.897Z,10.83
2019-06-26T07:37:45.442Z,7.70
2019-06-26T07:40:17.067Z,7.63
2019-06-26T07:42:45.694Z,13.48
2019-06-26T07:45:18.709Z,12.90
2019-06-26T07:47:47.275Z,11.33
2019-06-26T07:50:18.941Z,8.80
2019-06-26T07:52:47.481Z,7.45
2019-06-26T07:55:17.651Z,6.60
2019-06-26T07:57:48.809Z,8.60
2019-06-26T08:00:18.927Z,6.00
2019-06-26T08:02:47.479Z,8.88
2019-06-26T08:05:19.448Z,5.37
2019-06-26T08:07:48.005Z,5.70
2019-06-26T08:10:18.122Z,6.95
2019-06-26T08:12:46.656Z,15.58
2019-06-26T08:15:15.427Z,4.80
2019-06-26T08:17:59.192Z,7.90
2019-06-26T08:20:19.029Z,4.83
2019-06-26T08:22:47.598Z,3.98
2019-06-26T08:25:17.697Z,4.03
2019-06-26T08:27:46.224Z,3.85
2019-06-26T08:30:16.336Z,4.10
2019-06-26T08:32:44.890Z,4.50
2019-06-26T08:35:16.891Z,6.75
2019-06-26T08:37:46.950Z,4.67
2019-06-26T08:40:19.059Z,7.08
2019-06-26T08:42:50.566Z,3.80
2019-06-26T08:45:20.681Z,5.95
2019-06-26T08:47:49.149Z,4.90
2019-06-26T08:50:21.573Z,3.30
2019-06-26T08:52:50.157Z,5.05
2019-06-26T08:55:18.779Z,5.55
2019-06-26T08:57:47.366Z,4.00
2019-06-26T09:00:18.547Z,3.72
2019-06-26T09:02:48.603Z,4.30
2019-06-26T09:05:19.028Z,5.42
2019-06-26T09:07:49.224Z,4.05
2019-06-26T09:10:19.372Z,3.37
2019-06-26T09:12:47.857Z,3.92
2019-06-26T09:15:19.509Z,3.65
2019-06-26T09:17:48.065Z,8.18
2019-06-26T09:20:25.683Z,2.80
2019-06-26T09:22:54.242Z,3.45
2019-06-26T09:25:22.830Z,3.52
2019-06-26T09:27:51.376Z,5.22
2019-06-26T09:30:23.952Z,3.05
2019-06-26T09:32:55.250Z,3.27
2019-06-26T09:35:26.745Z,3.70
2019-06-26T09:37:55.302Z,3.33
2019-06-26T09:40:31.614Z,6.95
2019-06-26T09:42:58.627Z,2.60
2019-06-26T09:45:30.297Z,4.50
2019-06-26T09:47:58.906Z,4.10
2019-06-26T09:50:31.858Z,7.62
2019-06-26T09:53:00.445Z,3.35
2019-06-26T09:55:29.063Z,3.85
2019-06-26T09:57:57.632Z,3.05
2019-06-26T10:00:29.296Z,4.75
2019-06-26T10:02:57.862Z,3.17
2019-06-26T10:05:26.501Z,5.03
2019-06-26T10:07:55.065Z,3.20
2019-06-26T10:10:23.674Z,8.78
2019-06-26T10:12:53.754Z,9.45
2019-06-26T10:15:23.876Z,3.72
2019-06-26T10:17:55.573Z,3.85
2019-06-26T10:20:24.166Z,3.33
2019-06-26T10:22:52.709Z,4.53
2019-06-26T10:25:21.374Z,4.45
2019-06-26T10:27:50.036Z,3.58
2019-06-26T10:30:20.229Z,3.65
2019-06-26T10:32:48.751Z,5.35
2019-06-26T10:35:20.879Z,3.17
2019-06-26T10:37:49.365Z,4.80
2019-06-26T10:40:19.500Z,4.17
2019-06-26T10:42:48.027Z,3.20
2019-06-26T10:45:18.315Z,3.20
2019-06-26T10:47:46.895Z,4.30
2019-06-26T10:50:17.162Z,3.30
2019-06-26T10:52:45.715Z,3.77
2019-06-26T10:55:17.681Z,5.65
2019-06-26T10:57:46.229Z,3.42
2019-06-26T11:00:17.073Z,4.28
2019-06-26T11:02:45.684Z,2.90
2019-06-26T11:05:17.520Z,4.28
2019-06-26T11:07:46.071Z,4.60
2019-06-26T11:10:17.035Z,4.20
2019-06-26T11:12:48.842Z,4.33
2019-06-26T11:15:17.390Z,3.57
2019-06-26T11:17:48.718Z,4.90
2019-06-26T11:20:17.620Z,4.30
2019-06-26T11:22:46.145Z,4.70
2019-06-26T11:25:19.310Z,3.73
2019-06-26T11:27:47.933Z,4.37
2019-06-26T11:30:19.543Z,4.07
2019-06-26T11:32:48.091Z,4.93
2019-06-26T11:35:18.273Z,7.93
2019-06-26T11:37:49.814Z,9.90
2019-06-26T11:40:19.109Z,4.80
2019-06-26T11:42:47.664Z,7.03
2019-06-26T11:45:18.097Z,5.83
2019-06-26T11:47:49.484Z,9.30
2019-06-26T11:50:20.427Z,4.37
2019-06-26T11:52:51.836Z,5.33
2019-06-26T11:55:22.060Z,5.60
2019-06-26T11:57:50.637Z,6.03
2019-06-26T12:00:25.166Z,4.37
2019-06-26T12:02:56.258Z,5.73
2019-06-26T12:05:26.264Z,10.93
2019-06-26T12:07:54.856Z,9.73
2019-06-26T12:10:23.531Z,8.40
2019-06-26T12:12:52.099Z,4.30
2019-06-26T12:15:22.472Z,11.53
2019-06-26T12:17:52.557Z,5.07
2019-06-26T12:20:22.590Z,4.47
2019-06-26T12:22:51.115Z,5.77
2019-06-26T12:25:22.605Z,6.80
2019-06-26T12:27:51.115Z,4.50
2019-06-26T12:30:22.754Z,8.30
2019-06-26T12:33:02.342Z,5.80
2019-06-26T12:35:21.537Z,6.47
2019-06-26T12:37:50.082Z,5.90
2019-06-26T12:40:20.840Z,7.43
2019-06-26T12:42:54.504Z,13.80
2019-06-26T12:45:20.616Z,11.07
2019-06-26T12:47:51.957Z,6.00
2019-06-26T12:50:34.532Z,7.97
2019-06-26T12:52:53.804Z,9.13
2019-06-26T12:55:22.287Z,10.60
2019-06-26T12:57:53.602Z,9.70
2019-06-26T13:00:23.782Z,7.57
2019-06-26T13:02:52.322Z,6.13
2019-06-26T13:05:20.905Z,5.20
2019-06-26T13:07:49.457Z,5.40
2019-06-26T13:10:20.615Z,6.43
2019-06-26T13:12:49.217Z,10.60
2019-06-26T13:15:20.487Z,8.77
2019-06-26T13:17:48.994Z,7.73
2019-06-26T13:20:20.197Z,5.60
2019-06-26T13:22:48.695Z,13.17
2019-06-26T13:25:17.322Z,6.97
2019-06-26T13:27:45.862Z,10.37
2019-06-26T13:30:14.571Z,12.17
2019-06-26T13:32:43.113Z,11.20
2019-06-26T13:35:13.295Z,8.40
2019-06-26T13:37:41.831Z,7.80
2019-06-26T13:40:11.951Z,11.20
2019-06-26T13:42:40.570Z,14.03
2019-06-26T13:45:10.749Z,21.33
2019-06-26T13:47:39.316Z,7.10
2019-06-26T13:50:10.946Z,9.30
2019-06-26T13:52:39.498Z,8.00
2019-06-26T13:55:11.388Z,11.27
2019-06-26T13:57:39.905Z,15.10
2019-06-26T14:00:11.528Z,13.60
2019-06-26T14:02:40.132Z,10.90
2019-06-26T14:05:11.737Z,14.40
2019-06-26T14:07:41.763Z,8.63
2019-06-26T14:10:12.044Z,15.30
2019-06-26T14:12:40.611Z,12.50
2019-06-26T14:15:11.401Z,7.73
2019-06-26T14:17:39.957Z,8.57
2019-06-26T14:20:11.645Z,5.40
2019-06-26T14:22:40.160Z,15.30
2019-06-26T14:25:11.044Z,9.67
2019-06-26T14:27:42.179Z,7.27
2019-06-26T14:30:12.339Z,12.70
2019-06-26T14:32:40.845Z,9.03
2019-06-26T14:35:12.495Z,10.40
2019-06-26T14:37:46.901Z,11.63
2019-06-26T14:40:18.572Z,19.83
2019-06-26T14:42:47.087Z,9.53
2019-06-26T14:45:17.210Z,7.37
2019-06-26T14:47:48.425Z,10.63
2019-06-26T14:50:19.328Z,10.13
2019-06-26T14:52:47.860Z,8.70
2019-06-26T14:55:19.537Z,12.07
2019-06-26T14:57:48.150Z,11.47
2019-06-26T15:00:19.811Z,11.63
2019-06-26T15:02:49.900Z,14.67
2019-06-26T15:05:18.460Z,10.93
2019-06-26T15:07:49.975Z,7.73
2019-06-26T15:10:20.226Z,10.03
2019-06-26T15:12:50.346Z,12.87
2019-06-26T15:15:20.521Z,20.43
2019-06-26T15:17:49.099Z,15.93
2019-06-26T15:20:17.675Z,13.50
2019-06-26T15:22:46.304Z,13.87
2019-06-26T15:25:17.227Z,6.30
2019-06-26T15:27:48.466Z,11.87
2019-06-26T15:30:20.454Z,11.23
2019-06-26T15:32:49.003Z,10.03
2019-06-26T15:35:19.131Z,9.93
2019-06-26T15:37:47.685Z,8.67
2019-06-26T15:40:20.967Z,6.40
2019-06-26T15:42:49.525Z,9.70
2019-06-26T15:45:20.779Z,10.00
2019-06-26T15:47:51.157Z,6.77
2019-06-26T15:50:21.220Z,11.90
2019-06-26T15:52:49.783Z,7.10
2019-06-26T15:55:21.117Z,8.70
2019-06-26T15:57:52.562Z,8.53
2019-06-26T16:00:22.663Z,11.43
2019-06-26T16:02:51.280Z,6.83
2019-06-26T16:05:19.934Z,8.80
2019-06-26T16:07:48.481Z,9.10
2019-06-26T16:10:18.648Z,8.90
2019-06-26T16:12:47.239Z,8.50
2019-06-26T16:15:18.049Z,14.90
2019-06-26T16:17:50.732Z,11.10
2019-06-26T16:20:20.854Z,5.80
2019-06-26T16:22:52.194Z,5.80
2019-06-26T16:25:20.782Z,8.73
2019-06-26T16:28:04.259Z,9.93
2019-06-26T16:30:23.301Z,12.33
2019-06-26T16:32:56.676Z,12.43
2019-06-26T16:35:23.607Z,8.43
2019-06-26T16:37:53.719Z,5.90
2019-06-26T16:40:22.319Z,13.20
2019-06-26T16:42:50.900Z,20.73
2019-06-26T16:45:21.068Z,8.23
2019-06-26T16:47:49.627Z,9.97
2019-06-26T16:50:18.302Z,15.03
2019-06-26T16:52:50.380Z,12.57
2019-06-26T16:55:20.219Z,10.43
2019-06-26T16:57:51.816Z,7.53
2019-06-26T17:00:23.488Z,6.37
2019-06-26T17:02:52.068Z,6.63
2019-06-26T17:05:22.208Z,7.07
2019-06-26T17:07:53.667Z,12.13
2019-06-26T17:10:23.789Z,7.70
2019-06-26T17:12:52.442Z,5.80
2019-06-26T17:15:21.145Z,9.60
2019-06-26T17:17:49.739Z,5.13
2019-06-26T17:20:21.635Z,5.30
2019-06-26T17:23:04.974Z,9.03
2019-06-26T17:25:23.432Z,11.90
2019-06-26T17:27:52.076Z,11.30
2019-06-26T17:30:22.187Z,6.33
2019-06-26T17:32:52.295Z,4.47
2019-06-26T17:35:20.870Z,6.63
2019-06-26T17:37:49.463Z,6.17
2019-06-26T17:40:18.277Z,8.33
2019-06-26T17:42:49.769Z,4.20
2019-06-26T17:45:20.033Z,6.87
2019-06-26T17:47:48.636Z,12.20
2019-06-26T17:50:18.720Z,8.40
2019-06-26T17:52:48.883Z,9.70
2019-06-26T17:55:18.103Z,8.50
2019-06-26T17:57:48.570Z,8.13
2019-06-26T18:00:20.172Z,8.20
2019-06-26T18:02:48.761Z,8.80
2019-06-26T18:05:17.336Z,14.27
2019-06-26T18:07:45.938Z,5.50
2019-06-26T18:10:16.027Z,9.10
2019-06-26T18:12:44.675Z,4.53
2019-06-26T18:15:18.243Z,3.93
2019-06-26T18:17:49.554Z,5.20
2019-06-26T18:20:18.779Z,4.23
2019-06-26T18:23:05.430Z,7.43
2019-06-26T18:25:19.198Z,4.03
2019-06-26T18:27:49.028Z,3.70
2019-06-26T18:30:22.775Z,6.60
2019-06-26T18:32:53.729Z,5.33
2019-06-26T18:35:22.360Z,7.17
2019-06-26T18:37:56.752Z,7.90
2019-06-26T18:40:21.253Z,6.70
2019-06-26T18:42:49.866Z,6.20
2019-06-26T18:45:21.580Z,6.73
2019-06-26T18:47:50.167Z,4.10
2019-06-26T18:50:21.847Z,9.73
2019-06-26T18:52:53.192Z,5.73
2019-06-26T18:55:23.037Z,4.17
2019-06-26T18:57:54.623Z,4.23
2019-06-26T19:00:24.345Z,4.77
2019-06-26T19:02:52.991Z,7.87
2019-06-26T19:05:21.574Z,5.13
2019-06-26T19:08:05.660Z,5.37
2019-06-26T19:10:38.297Z,7.73
2019-06-26T19:13:07.086Z,8.87
2019-06-26T19:15:36.959Z,11.63
2019-06-26T19:18:05.746Z,9.60
2019-06-26T19:20:41.566Z,6.37
2019-06-26T19:23:13.061Z,4.63
2019-06-26T19:25:41.691Z,5.20
2019-06-26T19:28:10.338Z,17.67
2019-06-26T19:30:40.532Z,11.03
2019-06-26T19:33:09.244Z,8.87
2019-06-26T19:35:40.897Z,5.83
2019-06-26T19:38:09.567Z,7.13
2019-06-26T19:40:39.453Z,4.80
2019-06-26T19:43:11.004Z,10.70
2019-06-26T19:45:41.206Z,10.70
2019-06-26T19:48:09.871Z,11.17
2019-06-26T19:50:39.990Z,6.50
2019-06-26T19:53:10.126Z,7.50
2019-06-26T19:55:44.384Z,5.93
2019-06-26T19:58:10.342Z,5.03
2019-06-26T20:00:39.015Z,12.17
2019-06-26T20:03:07.603Z,10.40
2019-06-26T20:05:36.238Z,8.13
2019-06-26T20:08:05.295Z,5.07
2019-06-26T20:10:39.400Z,48.53
2019-06-26T20:13:09.706Z,11.67
2019-06-26T20:15:42.352Z,6.50
2019-06-26T20:18:13.897Z,15.33
2019-06-26T20:20:42.533Z,9.23
2019-06-26T20:23:13.932Z,8.23
2019-06-26T20:25:43.565Z,7.83
2019-06-26T20:28:13.988Z,9.10
2019-06-26T20:30:42.606Z,10.80
2019-06-26T20:33:14.203Z,7.37
2019-06-26T20:35:42.824Z,10.40
2019-06-26T20:38:11.697Z,12.47
2019-06-26T20:40:40.316Z,9.00
2019-06-26T20:43:10.752Z,5.47
2019-06-26T20:45:41.407Z,4.30
2019-06-26T20:48:10.151Z,6.83
2019-06-26T20:50:43.083Z,12.03
2019-06-26T20:53:11.686Z,6.40
2019-06-26T20:55:40.318Z,4.77
2019-06-26T20:58:08.872Z,27.53
2019-06-26T21:00:37.496Z,13.63
2019-06-26T21:03:08.934Z,6.97
2019-06-26T21:05:37.552Z,9.20
2019-06-26T21:08:06.134Z,12.37
2019-06-26T21:10:38.076Z,8.00
2019-06-26T21:13:06.628Z,9.17
2019-06-26T21:15:35.303Z,8.40
2019-06-26T21:18:03.855Z,8.43
2019-06-26T21:20:32.504Z,11.07
2019-06-26T21:23:02.660Z,9.30
2019-06-26T21:25:31.261Z,8.33
2019-06-26T21:27:59.840Z,6.27
2019-06-26T21:30:28.407Z,4.80
2019-06-26T21:32:56.958Z,6.20
2019-06-26T21:35:25.563Z,8.77
2019-06-26T21:37:54.111Z,8.83
2019-06-26T21:40:22.688Z,6.77
2019-06-26T21:42:51.279Z,9.97
2019-06-26T21:45:21.591Z,5.47
2019-06-26T21:47:50.134Z,6.80
2019-06-26T21:50:18.663Z,13.33
2019-06-26T21:52:50.300Z,7.50
2019-06-26T21:55:33.295Z,6.23
2019-06-26T21:57:49.141Z,9.17
2019-06-26T22:00:20.726Z,11.30
2019-06-26T22:02:49.263Z,5.17
2019-06-26T22:05:20.868Z,9.37
2019-06-26T22:07:50.779Z,6.23
2019-06-26T22:10:21.267Z,4.33
2019-06-26T22:12:49.827Z,4.33
2019-06-26T22:15:18.415Z,7.13
2019-06-26T22:17:46.965Z,6.87
2019-06-26T22:20:18.797Z,5.87
2019-06-26T22:22:47.269Z,9.73
2019-06-26T22:25:17.866Z,10.83
2019-06-26T22:27:46.433Z,9.83
2019-06-26T22:30:18.008Z,10.67
2019-06-26T22:32:46.566Z,10.30
2019-06-26T22:35:18.208Z,7.63
2019-06-26T22:37:49.462Z,4.77
2019-06-26T22:40:19.612Z,9.20
2019-06-26T22:42:48.204Z,6.20
2019-06-26T22:45:17.021Z,6.23
2019-06-26T22:47:45.576Z,8.53
2019-06-26T22:50:16.081Z,10.83
2019-06-26T22:52:44.623Z,17.23
2019-06-26T22:55:16.278Z,8.23
2019-06-26T22:57:44.860Z,8.43
2019-06-26T23:00:17.947Z,9.13
2019-06-26T23:02:46.502Z,6.43
2019-06-26T23:05:15.056Z,6.50
2019-06-26T23:07:43.540Z,10.50
2019-06-26T23:10:14.734Z,10.80
2019-06-26T23:12:43.214Z,7.83
2019-06-26T23:15:14.460Z,9.87
2019-06-26T23:17:42.933Z,9.30
2019-06-26T23:20:14.917Z,7.77
2019-06-26T23:22:43.391Z,11.10
2019-06-26T23:25:13.512Z,7.00
2019-06-26T23:27:41.983Z,14.10
2019-06-26T23:30:21.080Z,8.20
2019-06-26T23:32:49.627Z,13.70
2019-06-26T23:35:18.200Z,15.07
2019-06-26T23:37:46.741Z,9.20
2019-06-26T23:40:17.511Z,11.47
2019-06-26T23:42:46.070Z,14.93
2019-06-26T23:45:16.255Z,11.83
2019-06-26T23:47:44.798Z,10.77
2019-06-26T23:50:15.501Z,9.43
2019-06-26T23:52:43.990Z,12.77
2019-06-26T23:55:14.694Z,10.63
2019-06-26T23:57:58.082Z,16.20
